Time;durP1;ratioP1;P1;durP2;ratioP2;P2;SDS_P1;SDS_P2;PMS_P1;PMS_P2;Temp;Humidity;BMP_temperature;BMP_pressure;BME280_temperature;BME280_humidity;BME280_pressure;Samples;Min_cycle;Max_cycle;Signal;HPM_P1;HPM_P2
2023/06/18 00:01:24;;;;;;;;;24.00;23.00;;;;;23.50;59.71;100577.64;112211;1263;20998;-38
2023/06/18 00:03:51;;;;;;;;;23.00;20.00;;;;;23.50;59.65;100574.36;112082;1263;20842;-38
2023/06/18 00:06:19;;;;;;;;;23.50;22.00;;;;;23.50;59.60;100576.75;112204;1263;20423;-37
2023/06/18 00:08:46;;;;;;;;;29.00;23.00;;;;;23.50;59.61;100573.63;112089;1263;18774;-36
2023/06/18 00:11:14;;;;;;;;;27.00;25.00;;;;;23.49;59.63;100574.81;112217;1247;19414;-37
2023/06/18 00:13:41;;;;;;;;;31.50;29.50;;;;;23.47;59.35;100576.42;112083;1263;21448;-37
2023/06/18 00:16:09;;;;;;;;;25.33;23.00;;;;;23.44;59.27;100572.58;112219;1247;18873;-38
2023/06/18 00:18:36;;;;;;;;;30.00;28.33;;;;;23.40;59.16;100571.75;112133;1263;20921;-37
2023/06/18 00:21:07;;;;;;;;;28.50;23.00;;;;;23.35;59.35;100570.07;112234;1263;20172;-37
2023/06/18 00:23:35;;;;;;;;;28.67;25.67;;;;;23.32;59.30;100564.33;112206;1262;20014;-37
2023/06/18 00:26:02;;;;;;;;;31.00;26.50;;;;;23.28;59.12;100564.62;112034;1248;19636;-38
2023/06/18 00:28:29;;;;;;;;;27.00;25.00;;;;;23.26;59.24;100563.89;112193;1263;20066;-37
2023/06/18 00:30:57;;;;;;;;;34.00;29.00;;;;;23.25;59.17;100566.37;112058;1256;20051;-37
2023/06/18 00:33:25;;;;;;;;;30.00;25.50;;;;;23.23;59.14;100561.59;112182;1263;21024;-37
2023/06/18 00:35:57;;;;;;;;;26.50;25.50;;;;;23.22;59.00;100563.73;112151;1263;21659;-37
2023/06/18 00:38:24;;;;;;;;;30.00;25.50;;;;;23.21;59.09;100569.78;112220;1248;19955;-37
2023/06/18 00:40:52;;;;;;;;;31.50;28.00;;;;;23.22;58.81;100564.56;112070;1263;21298;-37
2023/06/18 00:43:19;;;;;;;;;29.00;26.50;;;;;23.21;58.67;100567.89;112177;1263;20276;-37
2023/06/18 00:45:47;;;;;;;;;26.00;25.00;;;;;23.20;58.79;100566.92;112039;1250;20374;-37
2023/06/18 00:48:14;;;;;;;;;33.00;29.50;;;;;23.20;58.66;100573.17;112213;1263;21121;-37
2023/06/18 00:50:42;;;;;;;;;29.00;24.00;;;;;23.18;58.73;100570.94;112067;1248;21467;-37
2023/06/18 00:53:12;;;;;;;;;32.00;30.00;;;;;23.16;58.64;100571.04;112178;1263;19905;-37
2023/06/18 00:55:39;;;;;;;;;31.00;27.00;;;;;23.16;58.65;100571.79;112015;1263;198030;-37
2023/06/18 00:58:07;;;;;;;;;31.00;29.00;;;;;23.16;58.50;100574.73;112088;1263;21508;-37
2023/06/18 01:00:35;;;;;;;;;29.50;27.50;;;;;23.13;58.63;100571.06;112142;1263;20094;-37
2023/06/18 01:03:02;;;;;;;;;33.00;30.00;;;;;23.14;58.77;100575.40;112105;1262;21038;-37
2023/06/18 01:05:31;;;;;;;;;33.67;29.67;;;;;23.12;58.63;100575.24;112156;1262;20311;-36
2023/06/18 01:07:59;;;;;;;;;30.00;29.67;;;;;23.12;58.55;100571.62;112216;1262;20114;-37
2023/06/18 01:10:28;;;;;;;;;35.00;27.33;;;;;23.11;58.39;100572.80;112114;1263;19742;-37
2023/06/18 01:12:58;;;;;;;;;33.00;29.67;;;;;23.09;58.50;100572.20;112127;1263;21788;-38
2023/06/18 01:15:27;;;;;;;;;31.50;28.50;;;;;23.08;58.60;100571.45;112156;1263;18908;-37
2023/06/18 01:17:56;;;;;;;;;33.00;28.50;;;;;23.08;58.65;100576.36;112208;1263;20365;-37
2023/06/18 01:20:25;;;;;;;;;32.50;30.00;;;;;23.07;58.42;100574.50;112207;1263;21646;-37
2023/06/18 01:22:53;;;;;;;;;30.33;29.33;;;;;23.07;58.51;100580.98;112072;1248;20024;-37
2023/06/18 01:25:20;;;;;;;;;31.00;28.50;;;;;23.06;58.36;100579.19;112149;1263;20731;-37
2023/06/18 01:27:50;;;;;;;;;30.00;28.00;;;;;23.02;58.37;100576.48;112189;1263;20542;-37
2023/06/18 01:30:17;;;;;;;;;29.50;28.50;;;;;23.02;58.39;100579.13;112043;1263;19891;-37
2023/06/18 01:32:45;;;;;;;;;29.00;28.00;;;;;23.01;58.15;100577.89;112190;1248;21137;-37
2023/06/18 01:35:14;;;;;;;;;31.67;29.00;;;;;23.00;58.11;100578.77;112203;1248;21456;-37
2023/06/18 01:37:44;;;;;;;;;30.00;29.00;;;;;22.99;58.16;100573.58;112070;1248;20294;-37
2023/06/18 01:40:12;;;;;;;;;32.33;30.00;;;;;22.98;57.85;100569.06;112112;1263;20757;-37
2023/06/18 01:42:39;;;;;;;;;35.00;30.00;;;;;22.96;57.88;100562.98;112209;1263;21589;-37
2023/06/18 01:45:07;;;;;;;;;33.00;30.00;;;;;23.00;57.85;100567.48;112121;1263;18760;-36
2023/06/18 01:47:35;;;;;;;;;29.00;26.00;;;;;23.02;57.76;100564.14;112186;1263;19414;-37
2023/06/18 01:50:02;;;;;;;;;35.00;31.33;;;;;22.99;57.68;100565.79;112050;1263;20262;-37
2023/06/18 01:52:30;;;;;;;;;29.50;28.00;;;;;23.00;57.57;100565.73;112159;1262;18755;-37
2023/06/18 01:54:59;;;;;;;;;28.00;26.00;;;;;22.98;57.59;100568.31;112054;1247;21228;-38
2023/06/18 01:57:26;;;;;;;;;28.50;26.00;;;;;22.96;57.56;100570.58;112138;1263;20324;-36
2023/06/18 01:59:54;;;;;;;;;30.00;25.00;;;;;22.96;57.69;100571.70;112231;1247;20169;-37
2023/06/18 02:02:21;;;;;;;;;39.00;31.50;;;;;22.95;57.55;100571.98;112120;1263;21062;-38
2023/06/18 02:04:49;;;;;;;;;34.50;31.50;;;;;22.95;57.46;100575.63;112205;1263;21388;-38
2023/06/18 02:07:17;;;;;;;;;35.50;30.00;;;;;22.93;57.54;100578.05;112064;1262;20180;-37
2023/06/18 02:09:44;;;;;;;;;29.00;26.00;;;;;22.91;57.43;100580.31;112225;1263;19642;-37
2023/06/18 02:12:12;;;;;;;;;34.67;29.00;;;;;22.91;57.38;100587.04;112099;1255;21714;-37
2023/06/18 02:14:39;;;;;;;;;32.00;32.00;;;;;22.94;57.26;100597.78;112188;1263;18836;-38
2023/06/18 02:17:07;;;;;;;;;30.33;28.33;;;;;22.90;57.14;100591.90;112080;1263;20941;-37
2023/06/18 02:19:34;;;;;;;;;28.67;27.33;;;;;22.88;57.07;100597.02;112169;1263;21688;-37
2023/06/18 02:22:02;;;;;;;;;30.00;29.00;;;;;22.87;56.93;100599.30;112130;1247;18775;-36
2023/06/18 02:24:31;;;;;;;;;29.00;28.50;;;;;22.84;56.95;100603.08;112178;1263;20777;-37
2023/06/18 02:26:58;;;;;;;;;33.50;29.00;;;;;22.84;56.71;100611.77;112253;1248;21741;-37
2023/06/18 02:29:26;;;;;;;;;35.00;30.00;;;;;22.79;56.79;100604.88;112104;1263;19967;-37
2023/06/18 02:31:53;;;;;;;;;33.00;30.00;;;;;22.84;56.53;100605.02;112255;1248;20737;-37
2023/06/18 02:34:27;;;;;;;;;32.00;25.00;;;;;22.85;56.42;100610.92;112093;1263;20749;-37
2023/06/18 02:36:55;;;;;;;;;27.00;27.00;;;;;22.85;56.44;100620.04;112225;1263;20151;-37
2023/06/18 02:39:23;;;;;;;;;32.00;30.00;;;;;22.82;56.35;100622.23;112239;1263;20759;-38
2023/06/18 02:41:50;;;;;;;;;33.00;28.00;;;;;22.79;56.34;100622.02;112127;1263;21673;-37
2023/06/18 02:44:18;;;;;;;;;30.00;28.00;;;;;22.76;56.33;100618.04;112240;1257;18965;-38
2023/06/18 02:46:45;;;;;;;;;32.67;29.00;;;;;22.76;56.24;100620.84;112123;1263;20796;-37
2023/06/18 02:49:13;;;;;;;;;33.50;28.50;;;;;22.77;56.23;100622.14;112228;1247;21547;-37
2023/06/18 02:51:40;;;;;;;;;28.00;26.00;;;;;22.79;56.15;100626.11;112127;1262;21052;-38
2023/06/18 02:54:07;;;;;;;;;28.00;25.00;;;;;22.79;56.05;100624.50;112205;1263;22560;-37
2023/06/18 02:56:35;;;;;;;;;34.00;31.50;;;;;22.77;55.96;100623.56;112152;1263;21325;-36
2023/06/18 02:59:02;;;;;;;;;32.50;29.00;;;;;22.78;55.85;100619.84;112167;1247;18752;-37
2023/06/18 03:01:31;;;;;;;;;31.00;28.00;;;;;22.78;55.91;100620.92;112155;1263;19677;-36
2023/06/18 03:03:59;;;;;;;;;29.00;28.00;;;;;22.74;55.90;100622.72;112206;1262;21854;-37
2023/06/18 03:06:27;;;;;;;;;29.00;28.00;;;;;22.72;55.73;100630.20;112123;1247;18761;-38
2023/06/18 03:08:54;;;;;;;;;28.00;25.00;;;;;22.70;55.64;100631.08;112215;1263;20375;-37
2023/06/18 03:11:22;;;;;;;;;32.00;28.00;;;;;22.71;55.70;100631.30;112085;1263;21416;-37
2023/06/18 03:13:51;;;;;;;;;32.67;30.33;;;;;22.70;55.69;100632.88;112123;1263;20433;-36
2023/06/18 03:16:18;;;;;;;;;32.00;29.00;;;;;22.69;55.54;100631.40;112283;1263;19771;-37
2023/06/18 03:18:46;;;;;;;;;32.00;26.00;;;;;22.68;55.57;100634.92;112111;1263;22836;-37
2023/06/18 03:21:15;;;;;;;;;31.00;28.00;;;;;22.68;55.55;100639.13;112234;1248;19939;-36
2023/06/18 03:23:43;;;;;;;;;31.50;28.00;;;;;22.65;55.51;100637.94;112045;1263;20798;-37
2023/06/18 03:26:11;;;;;;;;;31.00;28.00;;;;;22.66;55.45;100639.58;112105;1263;22947;-37
2023/06/18 03:28:38;;;;;;;;;28.00;26.50;;;;;22.68;55.30;100639.13;112216;1263;20502;-37
2023/06/18 03:31:06;;;;;;;;;29.00;26.00;;;;;22.71;55.36;100641.71;112143;1251;19805;-37
2023/06/18 03:33:33;;;;;;;;;30.00;27.33;;;;;22.65;55.31;100644.52;112224;1262;20203;-37
2023/06/18 03:36:01;;;;;;;;;28.67;28.00;;;;;22.64;55.49;100646.28;112158;1248;20245;-37
2023/06/18 03:38:28;;;;;;;;;31.00;28.50;;;;;22.65;55.42;100644.59;112225;1263;19484;-37
2023/06/18 03:40:56;;;;;;;;;29.50;27.00;;;;;22.66;55.33;100647.04;112134;1248;21404;-37
2023/06/18 03:43:23;;;;;;;;;36.00;32.50;;;;;22.62;55.24;100645.50;112228;1248;20058;-37
2023/06/18 03:45:51;;;;;;;;;28.50;25.00;;;;;22.62;55.42;100646.92;112138;1263;20819;-37
2023/06/18 03:48:18;;;;;;;;;30.00;27.00;;;;;22.60;55.36;100648.16;112247;1263;20110;-37
2023/06/18 03:50:45;;;;;;;;;30.67;26.00;;;;;22.61;55.29;100647.13;112131;1263;19947;-37
2023/06/18 03:53:13;;;;;;;;;31.50;28.50;;;;;22.62;55.23;100649.14;112231;1263;20978;-37
2023/06/18 03:55:41;;;;;;;;;31.50;28.00;;;;;22.60;55.14;100647.02;112138;1263;21655;-37
2023/06/18 03:58:08;;;;;;;;;26.00;22.00;;;;;22.58;55.31;100648.69;112264;1248;21515;-37
2023/06/18 04:00:36;;;;;;;;;28.00;26.00;;;;;22.59;55.31;100652.60;112133;1263;19399;-36
2023/06/18 04:03:05;;;;;;;;;38.00;31.00;;;;;22.57;55.26;100654.92;112229;1263;21441;-36
2023/06/18 04:05:33;;;;;;;;;29.00;28.00;;;;;22.57;55.38;100658.80;112185;1248;18960;-37
2023/06/18 04:08:00;;;;;;;;;32.00;31.00;;;;;22.59;55.22;100658.69;112145;1263;21013;-36
2023/06/18 04:10:27;;;;;;;;;35.50;32.00;;;;;22.60;55.14;100659.56;112120;1263;21361;-37
2023/06/18 04:12:55;;;;;;;;;26.00;24.00;;;;;22.59;55.14;100658.83;112146;1263;19941;-36
2023/06/18 04:15:22;;;;;;;;;35.00;32.00;;;;;22.56;55.26;100652.27;112106;1263;20129;-37
2023/06/18 04:17:50;;;;;;;;;31.33;27.33;;;;;22.57;55.39;100646.85;112177;1263;21610;-37
2023/06/18 04:20:17;;;;;;;;;32.67;30.33;;;;;22.59;55.21;100644.07;112052;1263;19954;-37
2023/06/18 04:22:45;;;;;;;;;30.33;28.00;;;;;22.61;55.18;100645.41;112156;1263;20778;-37
2023/06/18 04:25:12;;;;;;;;;38.00;35.00;;;;;22.61;55.23;100647.97;112149;1248;21653;-37
2023/06/18 04:27:40;;;;;;;;;38.00;35.00;;;;;22.49;55.52;100653.73;112174;1263;18892;-36
2023/06/18 04:30:08;;;;;;;;;48.00;37.00;;;;;22.24;56.28;100652.30;112228;1247;21401;-37
2023/06/18 04:32:35;;;;;;;;;41.00;37.00;;;;;22.18;56.59;100644.41;112127;1247;21439;-37
2023/06/18 04:35:03;;;;;;;;;32.33;30.67;;;;;22.23;56.57;100646.75;112260;1247;20812;-37
2023/06/18 04:37:30;;;;;;;;;41.00;37.00;;;;;22.33;56.46;100645.46;112123;1263;20722;-37
2023/06/18 04:39:58;;;;;;;;;40.00;37.00;;;;;22.32;56.61;100651.95;112225;1262;21504;-37
2023/06/18 04:42:25;;;;;;;;;44.00;41.00;;;;;22.23;56.88;100657.83;112105;1248;20151;-36
2023/06/18 04:44:53;;;;;;;;;39.00;36.00;;;;;22.22;57.08;100663.20;112249;1262;20276;-37
2023/06/18 04:47:20;;;;;;;;;42.00;39.00;;;;;22.13;57.30;100663.55;112122;1263;21482;-37
2023/06/18 04:49:48;;;;;;;;;39.50;34.00;;;;;22.12;57.45;100659.82;112254;1263;18629;-37
2023/06/18 04:52:15;;;;;;;;;41.00;36.50;;;;;22.17;57.33;100657.88;112164;1262;20933;-37
2023/06/18 04:54:43;;;;;;;;;37.00;32.00;;;;;22.24;57.28;100660.27;112351;1263;20060;-37
2023/06/18 04:57:10;;;;;;;;;43.50;34.50;;;;;22.25;57.26;100658.36;112134;1263;20251;-37
2023/06/18 04:59:38;;;;;;;;;34.00;34.00;;;;;22.25;57.50;100658.50;112273;1247;19740;-38
2023/06/18 05:02:05;;;;;;;;;35.50;33.50;;;;;22.23;57.74;100663.70;112106;1248;20302;-37
2023/06/18 05:04:33;;;;;;;;;32.00;32.00;;;;;22.23;57.86;100672.06;112237;1262;20214;-37
2023/06/18 05:07:00;;;;;;;;;37.50;31.50;;;;;22.25;57.95;100679.83;112110;1247;20962;-38
2023/06/18 05:09:28;;;;;;;;;34.00;32.50;;;;;22.21;58.13;100686.90;112252;1247;20343;-37
2023/06/18 05:11:55;;;;;;;;;40.00;35.00;;;;;22.18;58.31;100691.23;112110;1263;21259;-38
2023/06/18 05:14:23;;;;;;;;;40.00;35.00;;;;;22.18;58.40;100690.31;112262;1247;20988;-37
2023/06/18 05:16:50;;;;;;;;;37.00;34.00;;;;;22.18;58.37;100688.14;112127;1263;20104;-37
2023/06/18 05:19:18;;;;;;;;;40.00;37.00;;;;;22.13;58.54;100682.58;112247;1248;18886;-37
2023/06/18 05:21:45;;;;;;;;;44.50;36.00;;;;;22.03;58.92;100684.27;112140;1263;19453;-37
2023/06/18 05:24:13;;;;;;;;;43.00;33.50;;;;;22.05;58.96;100690.69;112242;1247;21402;-37
2023/06/18 05:26:40;;;;;;;;;40.33;36.33;;;;;22.11;58.82;100689.08;112127;1263;21041;-37
2023/06/18 05:29:08;;;;;;;;;37.00;32.00;;;;;22.14;58.75;100695.91;112214;1263;19638;-37
2023/06/18 05:31:35;;;;;;;;;45.00;42.00;;;;;22.09;58.75;100700.28;112143;1262;20449;-37
2023/06/18 05:34:02;;;;;;;;;47.00;42.00;;;;;22.08;58.59;100707.07;112146;1263;20125;-37
2023/06/18 05:36:30;;;;;;;;;48.00;42.00;;;;;22.10;58.45;100710.55;112188;1255;19777;-36
2023/06/18 05:38:59;;;;;;;;;38.00;36.50;;;;;22.24;58.42;100708.54;112084;1263;20376;-36
2023/06/18 05:41:27;;;;;;;;;35.00;32.00;;;;;22.41;58.01;100708.70;112102;1263;20276;-36
2023/06/18 05:43:54;;;;;;;;;32.00;28.67;;;;;22.53;57.89;100709.64;112186;1263;20830;-36
2023/06/18 05:46:22;;;;;;;;;25.00;25.00;;;;;22.59;57.84;100708.20;112103;1263;20358;-36
2023/06/18 05:48:49;;;;;;;;;25.00;24.00;;;;;22.66;57.71;100704.21;112174;1262;18673;-36
2023/06/18 05:51:16;;;;;;;;;31.00;29.00;;;;;22.73;57.40;100710.30;112126;1248;21016;-36
2023/06/18 05:53:44;;;;;;;;;34.00;31.00;;;;;22.71;57.65;100707.21;112214;1263;20127;-36
2023/06/18 05:56:12;;;;;;;;;33.00;29.50;;;;;22.78;57.78;100714.42;112099;1263;19907;-36
2023/06/18 05:58:39;;;;;;;;;28.00;25.00;;;;;22.85;57.61;100714.73;112175;1263;21069;-36
2023/06/18 06:01:07;;;;;;;;;28.50;25.00;;;;;22.90;57.66;100721.58;112086;1248;21691;-37
2023/06/18 06:03:35;;;;;;;;;29.50;26.50;;;;;22.96;57.49;100718.37;112220;1248;20227;-38
2023/06/18 06:06:02;;;;;;;;;25.00;23.00;;;;;23.03;57.64;100726.39;112066;1263;20900;-37
2023/06/18 06:08:30;;;;;;;;;29.67;25.33;;;;;23.07;57.56;100730.81;112141;1263;20492;-37
2023/06/18 06:10:57;;;;;;;;;25.00;22.00;;;;;23.10;57.66;100733.71;112049;1263;19934;-37
2023/06/18 06:13:24;;;;;;;;;35.50;35.50;;;;;23.09;57.51;100733.70;112192;1247;19853;-38
2023/06/18 06:15:52;;;;;;;;;39.50;35.00;;;;;22.93;57.90;100735.27;112074;1263;20275;-38
2023/06/18 06:18:19;;;;;;;;;46.00;36.50;;;;;22.83;58.30;100740.85;112175;1247;19155;-37
2023/06/18 06:20:47;;;;;;;;;49.00;40.00;;;;;22.79;58.72;100745.82;112061;1263;19424;-38
2023/06/18 06:23:14;;;;;;;;;40.00;39.00;;;;;22.73;59.28;100746.04;112162;1263;21735;-38
2023/06/18 06:25:42;;;;;;;;;38.00;36.00;;;;;22.74;59.54;100750.55;112071;1263;20126;-39
2023/06/18 06:28:10;;;;;;;;;46.00;39.00;;;;;22.75;59.63;100755.73;112146;1263;21089;-43
2023/06/18 06:30:37;;;;;;;;;44.00;41.00;;;;;22.80;59.56;100756.40;112044;1263;20113;-38
2023/06/18 06:33:05;;;;;;;;;46.00;41.00;;;;;22.81;59.80;100756.58;112155;1262;20063;-39
2023/06/18 06:35:32;;;;;;;;;43.00;37.00;;;;;22.83;59.97;100750.96;112045;1263;21179;-39
2023/06/18 06:37:59;;;;;;;;;40.00;36.00;;;;;22.85;59.74;100754.11;112179;1263;20338;-38
2023/06/18 06:40:27;;;;;;;;;42.67;37.00;;;;;22.80;60.10;100754.96;112045;1263;18551;-37
2023/06/18 06:42:54;;;;;;;;;37.50;35.00;;;;;22.73;60.30;100753.23;112198;1263;19588;-37
2023/06/18 06:45:22;;;;;;;;;42.00;38.50;;;;;22.72;60.43;100751.99;112098;1263;20655;-38
2023/06/18 06:47:49;;;;;;;;;49.00;41.00;;;;;22.75;60.26;100747.50;112211;1263;18878;-37
2023/06/18 06:50:17;;;;;;;;;36.00;34.00;;;;;22.85;60.39;100748.91;112136;1256;20804;-37
2023/06/18 06:52:44;;;;;;;;;35.00;35.00;;;;;23.02;60.06;100747.09;112203;1263;21602;-37
2023/06/18 06:55:11;;;;;;;;;34.50;32.50;;;;;23.13;59.65;100742.88;112134;1263;20011;-41
2023/06/18 06:57:39;;;;;;;;;32.00;30.50;;;;;23.08;59.49;100743.91;112215;1262;19751;-38
2023/06/18 07:00:07;;;;;;;;;35.50;32.00;;;;;23.04;59.67;100746.14;112119;1263;21804;-37
2023/06/18 07:02:34;;;;;;;;;30.67;29.67;;;;;22.99;59.85;100750.54;112216;1263;18806;-37
2023/06/18 07:05:02;;;;;;;;;32.50;30.50;;;;;22.97;59.57;100750.08;112085;1248;21033;-38
2023/06/18 07:07:29;;;;;;;;;32.67;32.00;;;;;23.03;59.63;100748.02;112234;1263;20110;-38
2023/06/18 07:09:57;;;;;;;;;33.50;32.00;;;;;23.11;59.45;100749.17;112088;1248;18861;-38
2023/06/18 07:12:24;;;;;;;;;35.00;32.00;;;;;23.11;59.75;100746.00;112176;1263;21340;-40
2023/06/18 07:14:51;;;;;;;;;35.50;32.00;;;;;23.22;59.96;100749.71;112087;1263;20427;-40
2023/06/18 07:17:19;;;;;;;;;34.00;30.50;;;;;23.27;60.19;100754.21;112229;1263;19919;-39
2023/06/18 07:19:46;;;;;;;;;38.50;36.00;;;;;23.35;60.10;100758.65;112136;1263;20851;-40
2023/06/18 07:22:14;;;;;;;;;40.33;38.33;;;;;23.34;60.39;100760.58;112220;1263;20179;-38
2023/06/18 07:24:42;;;;;;;;;35.00;30.33;;;;;23.31;60.56;100761.13;112107;1263;20426;-38
2023/06/18 07:27:09;;;;;;;;;171.00;133.33;;;;;23.30;60.70;100763.14;112234;1263;20824;-36
2023/06/18 07:29:37;;;;;;;;;209.00;160.50;;;;;23.37;60.86;100762.38;112085;1248;21797;-37
2023/06/18 07:32:04;;;;;;;;;162.00;127.00;;;;;23.47;60.67;100760.63;112228;1263;19231;-36
2023/06/18 07:34:32;;;;;;;;;182.00;140.00;;;;;23.52;60.48;100760.10;112077;1251;22454;-37
2023/06/18 07:36:59;;;;;;;;;120.50;96.00;;;;;23.56;60.27;100759.01;112207;1263;21814;-36
2023/06/18 07:39:27;;;;;;;;;117.50;94.50;;;;;23.56;60.37;100751.73;112109;1248;19293;-36
2023/06/18 07:41:54;;;;;;;;;105.00;80.50;;;;;23.58;60.44;100749.16;112161;1263;21052;-37
2023/06/18 07:44:22;;;;;;;;;96.00;70.50;;;;;23.63;60.39;100752.18;112104;1248;21494;-38
2023/06/18 07:46:50;;;;;;;;;73.00;56.67;;;;;23.68;60.14;100750.09;112174;1263;20500;-37
2023/06/18 07:49:20;;;;;;;;;61.50;47.00;;;;;23.66;59.62;100752.28;112143;1263;21074;-39
2023/06/18 07:51:48;;;;;;;;;59.50;46.00;;;;;23.58;59.59;100751.48;112273;1262;21332;-38
2023/06/18 07:54:15;;;;;;;;;43.00;40.00;;;;;23.58;59.79;100750.63;112116;1263;19959;-37
2023/06/18 07:56:43;;;;;;;;;41.50;37.50;;;;;23.72;59.63;100750.30;112259;1263;19450;-36
2023/06/18 07:59:11;;;;;;;;;46.00;40.50;;;;;23.77;59.71;100752.00;112106;1263;21623;-36
2023/06/18 08:01:39;;;;;;;;;37.00;33.00;;;;;23.64;59.48;100753.64;112223;1263;18725;-37
2023/06/18 08:04:06;;;;;;;;;33.00;30.00;;;;;23.63;59.44;100751.30;112122;1263;21107;-37
2023/06/18 08:06:34;;;;;;;;;33.67;32.33;;;;;23.73;59.44;100750.48;112247;1263;21684;-37
2023/06/18 08:09:01;;;;;;;;;43.00;39.00;;;;;23.80;59.22;100753.15;112139;1263;18784;-36
2023/06/18 08:11:28;;;;;;;;;37.00;33.00;;;;;23.89;59.36;100753.98;112233;1262;20759;-36
2023/06/18 08:13:56;;;;;;;;;36.00;35.00;;;;;23.97;58.98;100754.79;112114;1263;21722;-35
2023/06/18 08:16:23;;;;;;;;;33.00;30.00;;;;;23.88;58.98;100751.38;112255;1263;18624;-37
2023/06/18 08:18:52;;;;;;;;;30.00;28.00;;;;;23.91;58.87;100753.67;112138;1248;19338;-37
2023/06/18 08:21:20;;;;;;;;;41.00;37.00;;;;;23.93;58.73;100751.45;112132;1263;20442;-37
2023/06/18 08:23:48;;;;;;;;;35.00;33.00;;;;;23.97;58.59;100750.15;112272;1263;20239;-37
2023/06/18 08:26:16;;;;;;;;;38.00;34.00;;;;;24.11;58.77;100748.95;112141;1263;19622;-37
2023/06/18 08:28:43;;;;;;;;;37.50;33.00;;;;;24.16;58.58;100748.73;112279;1263;21789;-37
2023/06/18 08:31:11;;;;;;;;;30.00;28.00;;;;;24.13;58.53;100750.83;112089;1255;19975;-39
2023/06/18 08:33:38;;;;;;;;;34.00;31.00;;;;;24.10;58.26;100747.90;112222;1263;21140;-38
2023/06/18 08:36:06;;;;;;;;;38.67;34.33;;;;;24.11;57.98;100744.87;112124;1263;20309;-38
2023/06/18 08:38:33;;;;;;;;;33.00;32.00;;;;;24.04;57.75;100746.02;112224;1263;20087;-38
2023/06/18 08:41:02;;;;;;;;;31.33;31.00;;;;;23.90;57.47;100745.80;112140;1248;19599;-38
2023/06/18 08:43:32;;;;;;;;;28.50;27.00;;;;;23.91;57.37;100746.42;112212;1263;20120;-38
2023/06/18 08:45:59;;;;;;;;;27.00;27.00;;;;;23.84;57.14;100743.43;112220;1263;18649;-38
2023/06/18 08:48:27;;;;;;;;;28.00;26.00;;;;;23.91;56.97;100747.61;112049;1263;19567;-39
2023/06/18 08:50:54;;;;;;;;;32.00;30.00;;;;;24.02;56.58;100747.83;112211;1262;20435;-39
2023/06/18 08:53:22;;;;;;;;;30.50;27.50;;;;;24.10;56.33;100742.87;112100;1248;18722;-39
2023/06/18 08:55:49;;;;;;;;;31.00;27.50;;;;;24.10;56.00;100744.77;112197;1248;22080;-39
2023/06/18 08:58:17;;;;;;;;;26.00;23.00;;;;;24.02;56.05;100747.75;112075;1263;21696;-39
2023/06/18 09:00:44;;;;;;;;;29.50;27.00;;;;;23.95;55.78;100750.39;112207;1263;18886;-38
2023/06/18 09:03:12;;;;;;;;;26.50;26.00;;;;;23.97;55.25;100754.56;112079;1263;20778;-37
2023/06/18 09:05:40;;;;;;;;;25.33;22.67;;;;;23.86;55.15;100752.20;112219;1262;19948;-38
2023/06/18 09:08:07;;;;;;;;;27.50;26.50;;;;;23.78;54.93;100749.77;112096;1248;21602;-38
2023/06/18 09:10:35;;;;;;;;;27.50;24.00;;;;;23.84;54.44;100751.17;112162;1263;22053;-38
2023/06/18 09:13:02;;;;;;;;;28.00;24.00;;;;;23.85;54.54;100748.66;112038;1248;21658;-39
2023/06/18 09:15:30;;;;;;;;;26.00;24.00;;;;;23.88;54.74;100750.65;112168;1262;20145;-39
2023/06/18 09:17:57;;;;;;;;;23.50;22.50;;;;;23.87;54.68;100749.30;112054;1263;21149;-38
2023/06/18 09:20:25;;;;;;;;;24.50;23.00;;;;;23.88;54.68;100750.13;112156;1257;20113;-38
2023/06/18 09:22:52;;;;;;;;;33.00;27.00;;;;;23.92;54.73;100748.20;112038;1263;19950;-37
2023/06/18 09:25:20;;;;;;;;;27.00;25.50;;;;;23.93;54.72;100745.44;112195;1247;21172;-38
2023/06/18 09:27:47;;;;;;;;;24.00;23.50;;;;;24.00;54.37;100747.35;112067;1263;21439;-39
2023/06/18 09:30:14;;;;;;;;;27.00;24.00;;;;;24.08;54.25;100742.40;112195;1248;20267;-37
2023/06/18 09:32:42;;;;;;;;;28.00;23.50;;;;;24.03;53.78;100741.31;112084;1263;20655;-39
2023/06/18 09:35:10;;;;;;;;;25.33;23.00;;;;;23.98;53.64;100742.99;112164;1263;21463;-38
2023/06/18 09:37:37;;;;;;;;;20.00;19.00;;;;;23.92;53.58;100741.16;112047;1263;19898;-38
2023/06/18 09:40:05;;;;;;;;;26.50;23.50;;;;;23.85;53.53;100741.66;112216;1263;21157;-38
2023/06/18 09:42:32;;;;;;;;;22.00;21.50;;;;;23.75;53.46;100738.96;112064;1263;21721;-38
2023/06/18 09:45:00;;;;;;;;;26.67;24.67;;;;;23.68;53.54;100742.02;112169;1263;20221;-39
2023/06/18 09:47:27;;;;;;;;;26.00;24.00;;;;;23.77;53.78;100738.18;112132;1263;21090;-38
2023/06/18 09:49:56;;;;;;;;;23.00;23.00;;;;;23.82;53.68;100738.98;112139;1263;20401;-37
2023/06/18 09:52:24;;;;;;;;;27.00;24.00;;;;;23.91;53.61;100740.88;112281;1262;20224;-37
2023/06/18 09:54:51;;;;;;;;;27.00;24.00;;;;;24.01;53.67;100736.02;112098;1248;20981;-39
2023/06/18 09:57:19;;;;;;;;;23.00;23.00;;;;;24.04;53.66;100735.93;112223;1263;20416;-38
2023/06/18 09:59:46;;;;;;;;;23.00;21.50;;;;;24.00;53.98;100735.21;112110;1262;20232;-39
2023/06/18 10:02:14;;;;;;;;;28.00;25.50;;;;;24.01;53.87;100726.67;112230;1248;21002;-35
2023/06/18 10:04:41;;;;;;;;;26.00;23.00;;;;;23.94;53.71;100727.59;112123;1263;21409;-37
2023/06/18 10:07:13;;;;;;;;;22.00;20.50;;;;;23.90;53.86;100728.11;112218;1263;20170;-38
2023/06/18 10:09:41;;;;;;;;;28.00;24.00;;;;;23.87;53.31;100724.45;112116;1263;21905;-38
2023/06/18 10:12:08;;;;;;;;;27.00;26.00;;;;;23.87;52.89;100722.14;112252;1263;21455;-36
2023/06/18 10:14:36;;;;;;;;;24.00;23.50;;;;;23.79;52.82;100718.23;112119;1247;18982;-36
2023/06/18 10:17:04;;;;;;;;;24.00;23.00;;;;;23.82;52.67;100709.81;112293;1263;20857;-36
2023/06/18 10:19:31;;;;;;;;;23.67;23.00;;;;;23.88;52.68;100715.77;112122;1263;20313;-36
2023/06/18 10:21:58;;;;;;;;;25.00;23.00;;;;;23.88;52.52;100715.99;112239;1263;21394;-36
2023/06/18 10:24:26;;;;;;;;;21.33;20.00;;;;;23.87;52.44;100709.30;112155;1263;21171;-35
2023/06/18 10:26:53;;;;;;;;;21.33;20.00;;;;;23.85;51.99;100707.30;112283;1263;20245;-37
2023/06/18 10:29:21;;;;;;;;;23.50;20.50;;;;;23.90;51.95;100706.03;112155;1263;18714;-36
2023/06/18 10:31:48;;;;;;;;;27.00;23.00;;;;;23.94;51.69;100705.23;112273;1263;19474;-36
2023/06/18 10:34:16;;;;;;;;;24.00;21.00;;;;;24.03;51.52;100703.06;112124;1248;21672;-37
2023/06/18 10:36:43;;;;;;;;;27.00;23.50;;;;;23.99;51.17;100706.10;112311;1263;19948;-36
2023/06/18 10:39:11;;;;;;;;;25.00;23.00;;;;;24.03;50.41;100708.33;112168;1263;20866;-36
2023/06/18 10:41:39;;;;;;;;;22.50;20.00;;;;;23.87;50.61;100708.46;112335;1263;21825;-36
2023/06/18 10:44:06;;;;;;;;;23.50;20.00;;;;;23.88;50.53;100709.59;112314;1263;21039;-37
2023/06/18 10:46:34;;;;;;;;;22.00;22.00;;;;;23.88;50.69;100710.83;112367;1248;20685;-36
2023/06/18 10:49:01;;;;;;;;;24.00;23.00;;;;;23.89;50.95;100715.21;112285;1263;21568;-36
2023/06/18 10:51:30;;;;;;;;;24.00;21.00;;;;;23.92;51.20;100710.61;112360;1255;21376;-37
2023/06/18 10:53:58;;;;;;;;;26.67;23.67;;;;;23.98;51.31;100714.27;112362;1263;21149;-36
2023/06/18 10:56:25;;;;;;;;;22.50;22.50;;;;;23.94;51.56;100721.95;112295;1263;21439;-37
2023/06/18 10:58:53;;;;;;;;;25.00;24.00;;;;;23.90;51.63;100724.02;112317;1263;20015;-36
2023/06/18 11:01:20;;;;;;;;;28.00;24.67;;;;;23.81;52.03;100730.71;112133;1263;19436;-37
2023/06/18 11:03:49;;;;;;;;;26.50;23.50;;;;;23.69;52.77;100737.18;112264;1247;22826;-36